createdAt,value
2022-09-15T00:01:11.662Z,100436.72
2022-09-15T00:03:40.127Z,100431.09
2022-09-15T00:06:09.120Z,100433.63
2022-09-15T00:08:36.688Z,100453.22
2022-09-15T00:11:25.849Z,100448.25
2022-09-15T00:13:55.144Z,100447.06
2022-09-15T00:16:24.424Z,100445.22
2022-09-15T00:18:52.181Z,100435.31
2022-09-15T00:21:23.808Z,100419.97
2022-09-15T00:23:51.600Z,100407.56
2022-09-15T00:26:24.096Z,100396.03
2022-09-15T00:28:52.431Z,100395.50
2022-09-15T00:31:22.821Z,100387.19
2022-09-15T00:33:52.962Z,100385.03
2022-09-15T00:36:21.823Z,100383.84
2022-09-15T00:38:49.148Z,100384.53
2022-09-15T00:41:19.688Z,100395.56
2022-09-15T00:43:58.877Z,100410.34
2022-09-15T00:46:40.150Z,100406.59
2022-09-15T00:49:31.097Z,100414.75
2022-09-15T00:52:06.965Z,100421.25
2022-09-15T00:54:52.431Z,100413.06
2022-09-15T00:57:39.442Z,100412.88
2022-09-15T01:00:13.254Z,100404.72
2022-09-15T01:02:42.987Z,100410.00
2022-09-15T01:05:14.477Z,100402.84
2022-09-15T01:07:57.633Z,100403.38
2022-09-15T01:10:38.592Z,100409.00
2022-09-15T01:13:09.499Z,100401.69
2022-09-15T01:15:59.553Z,100398.78
2022-09-15T01:18:57.443Z,100395.38
2022-09-15T01:22:07.181Z,100399.31
2022-09-15T01:25:27.729Z,100390.16
2022-09-15T01:27:57.195Z,100375.41
2022-09-15T01:30:25.651Z,100364.66
2022-09-15T01:33:07.243Z,100366.53
2022-09-15T01:35:50.070Z,100370.66
2022-09-15T01:38:54.502Z,100366.41
2022-09-15T01:41:31.618Z,100359.28
2022-09-15T01:44:05.597Z,100362.84
2022-09-15T01:46:42.884Z,100364.03
2022-09-15T01:49:12.482Z,100365.22
2022-09-15T01:51:41.409Z,100359.78
2022-09-15T01:54:10.311Z,100346.19
2022-09-15T01:56:38.832Z,100336.13
2022-09-15T01:59:06.131Z,100332.56
2022-09-15T02:01:47.107Z,100321.88
2022-09-15T02:04:21.722Z,100333.28
2022-09-15T02:06:58.988Z,100329.22
2022-09-15T02:09:36.800Z,100306.59
2022-09-15T02:12:33.935Z,100288.59
2022-09-15T02:15:08.713Z,100298.59
2022-09-15T02:17:54.416Z,100309.88
2022-09-15T02:20:34.374Z,100297.47
2022-09-15T02:23:09.947Z,100293.03
2022-09-15T02:25:44.433Z,100272.13
2022-09-15T02:28:14.337Z,100267.53
2022-09-15T02:30:45.207Z,100278.41
2022-09-15T02:33:19.709Z,100276.53
2022-09-15T02:35:47.882Z,100256.09
2022-09-15T02:38:15.583Z,100243.88
2022-09-15T02:40:44.914Z,100250.72
2022-09-15T02:43:16.984Z,100254.16
2022-09-15T02:45:44.283Z,100258.75
2022-09-15T02:48:11.771Z,100253.13
2022-09-15T02:50:39.295Z,100252.75
2022-09-15T02:53:06.296Z,100236.09
2022-09-15T02:55:33.599Z,100228.97
2022-09-15T02:58:01.152Z,100232.03
2022-09-15T03:00:28.725Z,100219.78
2022-09-15T03:02:56.215Z,100224.91
2022-09-15T03:05:29.928Z,100225.25
2022-09-15T03:07:57.366Z,100222.41
2022-09-15T03:10:26.045Z,100223.09
2022-09-15T03:12:55.005Z,100214.25
2022-09-15T03:15:25.192Z,100211.69
2022-09-15T03:17:53.916Z,100217.47
2022-09-15T03:20:30.381Z,100211.19
2022-09-15T03:22:57.368Z,100220.38
2022-09-15T03:25:26.823Z,100236.72
2022-09-15T03:27:53.868Z,100235.88
2022-09-15T03:30:20.837Z,100230.44
2022-09-15T03:32:49.009Z,100216.63
2022-09-15T03:35:16.203Z,100200.50
2022-09-15T03:37:43.147Z,100204.97
2022-09-15T03:40:10.853Z,100214.31
2022-09-15T03:42:37.761Z,100218.91
2022-09-15T03:45:05.052Z,100216.84
2022-09-15T03:47:33.349Z,100217.03
2022-09-15T03:50:00.401Z,100210.06
2022-09-15T03:52:31.999Z,100216.56
2022-09-15T03:54:59.096Z,100208.41
2022-09-15T03:57:26.222Z,100224.50
2022-09-15T03:59:53.270Z,100217.56
2022-09-15T04:02:20.224Z,100214.84
2022-09-15T04:04:47.233Z,100225.91
2022-09-15T04:07:14.435Z,100231.16
2022-09-15T04:09:42.031Z,100238.31
2022-09-15T04:12:11.022Z,100242.72
2022-09-15T04:14:38.038Z,100244.59
2022-09-15T04:17:05.331Z,100259.22
2022-09-15T04:19:32.467Z,100250.88
2022-09-15T04:21:59.352Z,100253.78
2022-09-15T04:24:26.528Z,100251.75
2022-09-15T04:26:53.542Z,100254.97
2022-09-15T04:29:20.545Z,100260.75
2022-09-15T04:31:48.253Z,100254.81
2022-09-15T04:34:15.242Z,100254.16
2022-09-15T04:36:42.380Z,100254.31
2022-09-15T04:39:09.562Z,100256.41
2022-09-15T04:41:36.726Z,100259.63
2022-09-15T04:44:04.335Z,100264.22
2022-09-15T04:46:32.473Z,100261.31
2022-09-15T04:49:00.162Z,100261.50
2022-09-15T04:51:27.247Z,100257.09
2022-09-15T04:53:54.205Z,100265.06
2022-09-15T04:56:26.595Z,100273.03
2022-09-15T04:59:01.102Z,100270.97
2022-09-15T05:01:34.468Z,100273.03
2022-09-15T05:04:04.218Z,100275.75
2022-09-15T05:06:32.369Z,100284.56
2022-09-15T05:08:59.687Z,100287.47
2022-09-15T05:11:28.368Z,100285.75
2022-09-15T05:13:55.603Z,100289.50
2022-09-15T05:16:26.867Z,100274.38
2022-09-15T05:18:58.882Z,100275.75
2022-09-15T05:21:26.844Z,100279.00
2022-09-15T05:23:54.166Z,100276.44
2022-09-15T05:26:28.390Z,100276.78
2022-09-15T05:28:57.224Z,100274.06
2022-09-15T05:31:27.826Z,100272.19
2022-09-15T05:33:55.416Z,100267.47
2022-09-15T05:36:25.342Z,100269.13
2022-09-15T05:38:56.872Z,100280.84
2022-09-15T05:41:25.917Z,100286.97
2022-09-15T05:43:55.326Z,100284.94
2022-09-15T05:46:23.238Z,100292.25
2022-09-15T05:48:51.267Z,100288.84
2022-09-15T05:51:18.828Z,100288.84
2022-09-15T05:53:47.213Z,100285.63
2022-09-15T05:56:17.390Z,100284.59
2022-09-15T05:58:47.551Z,100288.34
2022-09-15T06:01:26.958Z,100281.53
2022-09-15T06:03:55.703Z,100268.28
2022-09-15T06:06:24.322Z,100277.09
2022-09-15T06:08:58.984Z,100284.06
2022-09-15T06:11:31.328Z,100286.47
2022-09-15T06:14:20.331Z,100293.44
2022-09-15T06:16:47.338Z,100288.66
2022-09-15T06:19:14.837Z,100302.59
2022-09-15T06:21:41.772Z,100303.94
2022-09-15T06:24:12.586Z,100310.91
2022-09-15T06:26:40.076Z,100310.56
2022-09-15T06:29:08.059Z,100313.97
2022-09-15T06:31:35.792Z,100305.81
2022-09-15T06:34:04.119Z,100306.31
2022-09-15T06:36:31.870Z,100303.41
2022-09-15T06:38:59.731Z,100302.22
2022-09-15T06:41:38.291Z,100296.59
2022-09-15T06:44:22.252Z,100308.84
2022-09-15T06:46:50.162Z,100316.81
2022-09-15T06:49:17.750Z,100317.31
2022-09-15T06:51:44.850Z,100324.97
2022-09-15T06:54:12.164Z,100329.38
2022-09-15T06:56:39.694Z,100327.00
2022-09-15T06:59:07.420Z,100310.97
2022-09-15T07:01:35.100Z,100316.75
2022-09-15T07:04:05.893Z,100319.78
2022-09-15T07:06:33.966Z,100311.94
2022-09-15T07:09:02.445Z,100319.59
2022-09-15T07:11:30.143Z,100316.53
2022-09-15T07:13:57.421Z,100321.13
2022-09-15T07:16:27.823Z,100319.88
2022-09-15T07:19:01.809Z,100318.69
2022-09-15T07:21:28.725Z,100308.66
2022-09-15T07:23:58.087Z,100316.44
2022-09-15T07:26:28.487Z,100309.59
2022-09-15T07:29:02.416Z,100309.06
2022-09-15T07:31:32.668Z,100306.31
2022-09-15T07:34:01.085Z,100309.03
2022-09-15T07:36:29.693Z,100306.47
2022-09-15T07:38:56.908Z,100312.41
2022-09-15T07:41:29.980Z,100305.22
2022-09-15T07:43:59.676Z,100303.81
2022-09-15T07:46:30.705Z,100314.16
2022-09-15T07:48:57.778Z,100316.16
2022-09-15T07:51:26.087Z,100314.13
2022-09-15T07:53:54.000Z,100320.06
2022-09-15T07:56:22.088Z,100315.97
2022-09-15T07:58:50.162Z,100317.81
2022-09-15T08:01:19.685Z,100309.38
2022-09-15T08:03:50.070Z,100307.97
2022-09-15T08:06:20.739Z,100308.94
2022-09-15T08:08:49.108Z,100306.53
2022-09-15T08:11:22.469Z,100310.34
2022-09-15T08:13:52.400Z,100311.34
2022-09-15T08:16:24.499Z,100301.56
2022-09-15T08:18:55.550Z,100306.28
2022-09-15T08:21:23.666Z,100296.31
2022-09-15T08:23:57.327Z,100298.16
2022-09-15T08:26:26.488Z,100294.00
2022-09-15T08:28:53.942Z,100298.53
2022-09-15T08:31:21.382Z,100298.81
2022-09-15T08:33:53.914Z,100298.44
2022-09-15T08:36:22.330Z,100306.16
2022-09-15T08:38:49.839Z,100302.03
2022-09-15T08:41:49.813Z,100302.75
2022-09-15T08:44:40.132Z,100299.72
2022-09-15T08:47:35.512Z,100293.13
2022-09-15T08:50:27.423Z,100293.44
2022-09-15T08:53:06.738Z,100309.53
2022-09-15T08:55:55.530Z,100302.53
2022-09-15T08:58:32.324Z,100301.28
2022-09-15T09:01:11.440Z,100314.06
2022-09-15T09:03:59.952Z,100303.59
2022-09-15T09:06:52.070Z,100305.81
2022-09-15T09:09:51.879Z,100313.03
2022-09-15T09:12:42.166Z,100310.84
2022-09-15T09:15:43.846Z,100311.94
2022-09-15T09:18:42.132Z,100307.41
2022-09-15T09:21:30.867Z,100309.16
2022-09-15T09:24:03.262Z,100310.25
2022-09-15T09:26:34.680Z,100298.97
2022-09-15T09:29:19.728Z,100307.63
2022-09-15T09:31:50.295Z,100297.38
2022-09-15T09:34:35.685Z,100296.78
2022-09-15T09:37:13.314Z,100290.50
2022-09-15T09:39:41.110Z,100286.63
2022-09-15T09:42:16.929Z,100280.13
2022-09-15T09:44:45.041Z,100285.22
2022-09-15T09:47:13.309Z,100277.06
2022-09-15T09:49:47.769Z,100268.88
2022-09-15T09:52:34.444Z,100262.38
2022-09-15T09:55:23.453Z,100266.63
2022-09-15T09:57:50.776Z,100259.47
2022-09-15T10:00:38.934Z,100250.63
2022-09-15T10:03:17.706Z,100250.47
2022-09-15T10:05:59.363Z,100236.59
2022-09-15T10:08:26.356Z,100231.59
2022-09-15T10:10:56.070Z,100235.19
2022-09-15T10:13:23.071Z,100231.19
2022-09-15T10:16:00.857Z,100238.34
2022-09-15T10:18:38.961Z,100220.66
2022-09-15T10:21:09.874Z,100210.75
2022-09-15T10:23:37.482Z,100209.72
2022-09-15T10:26:16.837Z,100204.00
2022-09-15T10:28:46.027Z,100194.94
2022-09-15T10:31:30.779Z,100188.81
2022-09-15T10:33:57.863Z,100179.56
2022-09-15T10:36:32.082Z,100183.78
2022-09-15T10:39:19.782Z,100180.63
2022-09-15T10:42:04.491Z,100172.84
2022-09-15T10:44:52.603Z,100169.69
2022-09-15T10:48:02.843Z,100162.28
2022-09-15T10:51:22.713Z,100152.13
2022-09-15T10:54:31.840Z,100139.66
2022-09-15T10:57:21.902Z,100136.28
2022-09-15T11:00:12.788Z,100133.28
2022-09-15T11:03:39.988Z,100128.44
2022-09-15T11:06:32.503Z,100108.16
2022-09-15T11:09:02.038Z,100112.13
2022-09-15T11:11:46.107Z,100104.78
2022-09-15T11:14:51.716Z,100112.97
2022-09-15T11:17:37.033Z,100116.53
2022-09-15T11:21:02.184Z,100112.44
2022-09-15T11:23:40.742Z,100118.91
2022-09-15T11:26:16.186Z,100113.78
2022-09-15T11:28:56.645Z,100118.63
2022-09-15T11:31:42.118Z,100120.28
2022-09-15T11:34:39.077Z,100117.69
2022-09-15T11:37:20.500Z,100121.00
2022-09-15T11:39:55.552Z,100116.53
2022-09-15T11:42:42.623Z,100122.63
2022-09-15T11:45:20.806Z,100117.75
2022-09-15T11:47:53.848Z,100124.22
2022-09-15T11:50:29.391Z,100121.22
2022-09-15T11:53:05.125Z,100123.91
2022-09-15T11:55:40.663Z,100115.19
2022-09-15T11:58:34.848Z,100118.22
2022-09-15T12:01:10.980Z,100103.38
2022-09-15T12:03:45.979Z,100100.94
2022-09-15T12:07:01.743Z,100088.56
2022-09-15T12:09:29.278Z,100083.13
2022-09-15T12:12:07.890Z,100082.84
2022-09-15T12:14:42.865Z,100082.22
2022-09-15T12:17:22.384Z,100085.84
2022-09-15T12:20:16.509Z,100084.44
2022-09-15T12:22:54.970Z,100083.34
2022-09-15T12:25:44.763Z,100086.47
2022-09-15T12:28:24.130Z,100086.59
2022-09-15T12:31:33.991Z,100082.81
2022-09-15T12:34:26.137Z,100071.47
2022-09-15T12:37:14.961Z,100067.09
2022-09-15T12:39:49.183Z,100063.63
2022-09-15T12:42:22.200Z,100054.38
2022-09-15T12:44:54.112Z,100051.25
2022-09-15T12:47:33.955Z,100044.56
2022-09-15T12:50:16.269Z,100047.44
2022-09-15T12:52:48.480Z,100058.13
2022-09-15T12:55:24.023Z,100050.72
2022-09-15T12:57:58.634Z,100037.84
2022-09-15T13:00:49.994Z,100039.41
2022-09-15T13:06:10.791Z,100041.63
2022-09-15T13:08:38.207Z,100044.63
2022-09-15T13:11:28.564Z,100047.63
2022-09-15T13:14:06.676Z,100036.41
2022-09-15T13:17:04.386Z,100038.31
2022-09-15T13:19:46.678Z,100043.34
2022-09-15T13:22:16.658Z,100043.00
2022-09-15T13:25:15.725Z,100038.34
2022-09-15T13:28:02.717Z,100033.94
2022-09-15T13:31:11.153Z,100024.56
2022-09-15T13:40:30.822Z,100021.44
2022-09-15T13:43:11.972Z,100019.28
2022-09-15T13:45:45.882Z,100015.31
2022-09-15T13:48:40.748Z,100015.81
2022-09-15T13:51:25.560Z,100008.34
2022-09-15T13:54:08.393Z,100004.66
2022-09-15T13:56:39.630Z,99999.72
2022-09-15T13:59:17.079Z,100002.53
2022-09-15T14:01:45.244Z,100000.13
2022-09-15T14:04:24.483Z,99998.09
2022-09-15T14:07:01.001Z,99999.59
2022-09-15T14:09:39.624Z,99987.41
2022-09-15T14:12:13.690Z,99987.84
2022-09-15T14:14:54.712Z,99980.06
2022-09-15T14:17:28.863Z,99975.50
2022-09-15T14:19:59.326Z,99971.53
2022-09-15T14:22:35.868Z,99971.19
2022-09-15T14:25:15.093Z,99963.06
2022-09-15T14:27:46.975Z,99972.91
2022-09-15T14:30:28.197Z,99971.25
2022-09-15T14:33:00.805Z,99961.06
2022-09-15T14:35:36.439Z,99967.19
2022-09-15T14:38:04.250Z,99962.28
2022-09-15T14:40:41.332Z,99960.97
2022-09-15T14:43:40.381Z,99947.94
2022-09-15T14:46:13.090Z,99953.38
2022-09-15T14:48:40.121Z,99959.09
2022-09-15T14:51:33.104Z,99945.19
2022-09-15T14:54:03.230Z,99953.56
2022-09-15T14:56:35.655Z,99949.84
2022-09-15T14:59:11.227Z,99953.28
2022-09-15T15:01:43.959Z,99951.00
2022-09-15T15:04:33.291Z,99950.03
2022-09-15T15:07:28.099Z,99950.97
2022-09-15T15:09:59.319Z,99957.63
2022-09-15T15:12:32.327Z,99956.34
2022-09-15T15:15:00.544Z,99960.78
2022-09-15T15:17:45.303Z,99951.19
2022-09-15T15:20:16.647Z,99944.63
2022-09-15T15:22:45.199Z,99942.09
2022-09-15T15:25:32.412Z,99946.78
2022-09-15T15:28:01.044Z,99940.66
2022-09-15T15:30:47.121Z,99937.53
2022-09-15T15:33:27.599Z,99937.31
2022-09-15T15:36:04.505Z,99933.13
2022-09-15T15:38:47.617Z,99929.53
2022-09-15T15:41:24.984Z,99931.66
2022-09-15T15:44:07.712Z,99931.56
2022-09-15T15:46:58.597Z,99925.03
2022-09-15T15:49:29.897Z,99929.09
2022-09-15T15:51:59.029Z,99927.63
2022-09-15T15:54:27.733Z,99925.13
2022-09-15T15:56:55.284Z,99917.56
2022-09-15T15:59:22.268Z,99912.31
2022-09-15T16:01:55.482Z,99914.44
2022-09-15T16:04:22.515Z,99906.66
2022-09-15T16:06:50.902Z,99901.41
2022-09-15T16:09:19.380Z,99905.44
2022-09-15T16:11:46.732Z,99897.44
2022-09-15T16:14:14.301Z,99905.91
2022-09-15T16:16:41.796Z,99905.31
2022-09-15T16:19:08.894Z,99900.88
2022-09-15T16:21:40.295Z,99904.72
2022-09-15T16:24:14.405Z,99908.53
2022-09-15T16:26:42.731Z,99907.09
2022-09-15T16:29:10.333Z,99904.53
2022-09-15T16:31:38.257Z,99894.00
2022-09-15T16:34:05.370Z,99908.63
2022-09-15T16:36:36.238Z,99905.88
2022-09-15T16:39:04.535Z,99906.09
2022-09-15T16:41:34.817Z,99903.59
2022-09-15T16:44:04.349Z,99904.06
2022-09-15T16:46:31.405Z,99901.50
2022-09-15T16:48:58.398Z,99898.19
2022-09-15T16:51:31.019Z,99903.06
2022-09-15T16:53:58.938Z,99903.16
2022-09-15T16:56:27.028Z,99904.81
2022-09-15T16:58:59.479Z,99902.31
2022-09-15T17:01:27.536Z,99898.91
2022-09-15T17:03:54.790Z,99899.38
2022-09-15T17:06:22.372Z,99898.16
2022-09-15T17:08:49.824Z,99893.38
2022-09-15T17:11:19.805Z,99902.53
2022-09-15T17:13:47.123Z,99894.13
2022-09-15T17:16:19.361Z,99894.81
2022-09-15T17:18:46.953Z,99892.97
2022-09-15T17:21:16.740Z,99892.81
2022-09-15T17:23:49.551Z,99892.69
2022-09-15T17:26:31.052Z,99888.09
2022-09-15T17:28:58.689Z,99896.16
2022-09-15T17:31:27.913Z,99886.03
2022-09-15T17:33:54.980Z,99884.44
2022-09-15T17:36:22.794Z,99887.00
2022-09-15T17:38:50.187Z,99884.13
2022-09-15T17:41:20.466Z,99889.44
2022-09-15T17:43:47.749Z,99896.44
2022-09-15T17:46:16.165Z,99890.78
2022-09-15T17:48:43.653Z,99889.78
2022-09-15T17:51:17.123Z,99903.34
2022-09-15T17:53:45.189Z,99901.31
2022-09-15T17:56:12.506Z,99907.25
2022-09-15T17:58:39.874Z,99893.31
2022-09-15T18:01:06.859Z,99899.50
2022-09-15T18:03:36.967Z,99894.66
2022-09-15T18:06:08.029Z,99899.75
2022-09-15T18:08:38.817Z,99899.78
2022-09-15T18:11:07.091Z,99899.00
2022-09-15T18:13:34.522Z,99895.84
2022-09-15T18:16:13.164Z,99907.47
2022-09-15T18:18:40.966Z,99905.41
2022-09-15T18:21:14.675Z,99903.09
2022-09-15T18:23:42.496Z,99902.69
2022-09-15T18:26:09.463Z,99902.28
2022-09-15T18:28:36.463Z,99916.44
2022-09-15T18:31:03.847Z,99914.97
2022-09-15T18:33:30.796Z,99919.81
2022-09-15T18:35:59.131Z,99922.13
2022-09-15T18:38:26.579Z,99917.31
2022-09-15T18:40:56.555Z,99928.94
2022-09-15T18:43:26.921Z,99925.75
2022-09-15T18:45:59.804Z,99928.53
2022-09-15T18:48:27.600Z,99930.03
2022-09-15T18:50:54.973Z,99940.56
2022-09-15T18:53:22.015Z,99938.50
2022-09-15T18:55:49.003Z,99939.13
2022-09-15T18:58:15.947Z,99941.69
2022-09-15T19:00:45.695Z,99945.69
2022-09-15T19:03:14.331Z,99937.06
2022-09-15T19:05:41.945Z,99942.13
2022-09-15T19:08:10.914Z,99953.50
2022-09-15T19:10:40.691Z,99953.91
2022-09-15T19:13:07.709Z,99954.53
2022-09-15T19:15:35.229Z,99962.13
2022-09-15T19:18:02.233Z,99957.06
2022-09-15T19:20:30.107Z,99971.19
2022-09-15T19:22:58.344Z,99969.69
2022-09-15T19:25:25.364Z,99967.59
2022-09-15T19:27:52.277Z,99968.03
2022-09-15T19:30:19.352Z,99970.13
2022-09-15T19:32:46.392Z,99962.31
2022-09-15T19:35:13.979Z,99970.53
2022-09-15T19:37:42.691Z,99964.66
2022-09-15T19:40:14.178Z,99966.75
2022-09-15T19:42:43.677Z,99962.56
2022-09-15T19:45:13.465Z,99967.81
2022-09-15T19:47:41.632Z,99969.28
2022-09-15T19:50:11.622Z,99964.66
2022-09-15T19:52:38.685Z,99968.44
2022-09-15T19:55:09.509Z,99962.09
2022-09-15T19:57:41.473Z,99976.00
2022-09-15T20:00:12.647Z,99978.94
2022-09-15T20:02:40.344Z,99976.66
2022-09-15T20:05:08.721Z,99970.53
2022-09-15T20:07:35.976Z,99978.09
2022-09-15T20:10:03.926Z,99976.63
2022-09-15T20:12:31.347Z,99978.09
2022-09-15T20:14:58.253Z,99975.13
2022-09-15T20:17:25.350Z,99971.72
2022-09-15T20:19:52.251Z,99980.16
2022-09-15T20:22:19.156Z,99975.72
2022-09-15T20:24:46.139Z,99974.03
2022-09-15T20:27:13.062Z,99976.13
2022-09-15T20:29:40.406Z,99975.50
2022-09-15T20:32:07.315Z,99983.91
2022-09-15T20:34:34.282Z,99977.81
2022-09-15T20:37:01.314Z,99988.75
2022-09-15T20:39:29.000Z,99986.44
2022-09-15T20:41:57.702Z,99988.53
2022-09-15T20:44:24.691Z,99982.63
2022-09-15T20:46:51.852Z,99983.25
2022-09-15T20:49:18.849Z,99989.13
2022-09-15T20:51:45.835Z,99986.81
2022-09-15T20:54:12.831Z,99997.09
2022-09-15T20:56:40.307Z,99991.19
2022-09-15T20:59:10.340Z,99982.34
2022-09-15T21:01:39.103Z,99993.06
2022-09-15T21:04:08.449Z,99996.41
2022-09-15T21:06:36.034Z,99992.63
2022-09-15T21:09:05.340Z,99990.69
2022-09-15T21:11:33.147Z,99996.72
2022-09-15T21:14:01.001Z,99999.84
2022-09-15T21:16:29.153Z,99998.97
2022-09-15T21:18:58.228Z,100005.25
2022-09-15T21:21:30.009Z,100009.59
2022-09-15T21:24:03.640Z,100006.25
2022-09-15T21:26:35.326Z,100021.59
2022-09-15T21:29:02.818Z,100013.63
2022-09-15T21:31:32.973Z,100011.91
2022-09-15T21:34:00.269Z,100013.19
2022-09-15T21:36:30.179Z,100018.38
2022-09-15T21:38:59.146Z,100010.81
2022-09-15T21:41:32.175Z,100021.28
2022-09-15T21:43:59.354Z,100014.72
2022-09-15T21:46:29.610Z,100017.44
2022-09-15T21:48:59.300Z,100018.28
2022-09-15T21:51:28.939Z,100014.50
2022-09-15T21:53:58.419Z,100014.72
2022-09-15T21:56:27.455Z,100018.47
2022-09-15T21:58:54.599Z,100016.34
2022-09-15T22:01:25.788Z,100009.59
2022-09-15T22:03:59.596Z,100012.91
2022-09-15T22:06:31.951Z,100010.94
2022-09-15T22:09:07.287Z,100024.34
2022-09-15T22:11:35.684Z,100026.81
2022-09-15T22:14:04.383Z,100035.41
2022-09-15T22:16:33.880Z,100040.41
2022-09-15T22:19:01.934Z,100041.47
2022-09-15T22:21:36.745Z,100043.13
2022-09-15T22:24:07.048Z,100043.78
2022-09-15T22:26:37.637Z,100047.38
2022-09-15T22:29:05.515Z,100047.75
2022-09-15T22:31:33.004Z,100047.97
2022-09-15T22:34:00.176Z,100044.31
2022-09-15T22:36:30.461Z,100054.75
2022-09-15T22:39:06.169Z,100062.03
2022-09-15T22:41:39.229Z,100050.28
2022-09-15T22:44:11.186Z,100047.78
2022-09-15T22:46:38.218Z,100049.44
2022-09-15T22:49:05.144Z,100049.25
2022-09-15T22:51:32.143Z,100042.09
2022-09-15T22:53:59.656Z,100044.56
2022-09-15T22:56:26.986Z,100039.91
2022-09-15T22:58:56.084Z,100048.66
2022-09-15T23:01:30.487Z,100046.69
2022-09-15T23:04:01.077Z,100036.00
2022-09-15T23:06:32.902Z,100044.81
2022-09-15T23:09:08.489Z,100033.91
2022-09-15T23:11:39.695Z,100029.69
2022-09-15T23:14:13.328Z,100033.44
2022-09-15T23:16:40.636Z,100033.34
2022-09-15T23:19:08.041Z,100036.91
2022-09-15T23:21:35.071Z,100030.63
2022-09-15T23:24:02.623Z,100048.19
2022-09-15T23:26:29.549Z,100049.63
2022-09-15T23:28:56.532Z,100046.25
2022-09-15T23:31:23.683Z,100039.31
2022-09-15T23:33:50.850Z,100041.38
2022-09-15T23:36:19.612Z,100047.66
2022-09-15T23:38:48.134Z,100044.09
2022-09-15T23:41:16.935Z,100035.06
2022-09-15T23:43:45.216Z,100044.31
2022-09-15T23:46:12.750Z,100042.78
2022-09-15T23:48:39.966Z,100037.91
2022-09-15T23:51:07.083Z,100033.25
2022-09-15T23:53:34.822Z,100040.75
2022-09-15T23:56:02.584Z,100043.69
2022-09-15T23:58:29.968Z,100038.41
